createdAt,value
2018-12-10T00:01:35.065Z,21.17
2018-12-10T00:03:39.516Z,16.80
2018-12-10T00:05:43.820Z,12.53
2018-12-10T00:07:48.297Z,13.70
2018-12-10T00:09:52.721Z,14.57
2018-12-10T00:11:56.955Z,21.97
2018-12-10T00:14:01.345Z,16.80
2018-12-10T00:16:05.906Z,12.53
2018-12-10T00:18:10.176Z,8.57
2018-12-10T00:20:14.505Z,14.03
2018-12-10T00:22:19.040Z,14.97
2018-12-10T00:24:23.410Z,18.83
2018-12-10T00:26:27.663Z,15.67
2018-12-10T00:28:31.913Z,12.97
2018-12-10T00:30:36.270Z,14.83
2018-12-10T00:32:40.721Z,17.27
2018-12-10T00:34:44.902Z,17.00
2018-12-10T00:36:49.074Z,17.73
2018-12-10T00:38:53.434Z,17.30
2018-12-10T00:40:57.946Z,20.70
2018-12-10T00:43:02.170Z,21.80
2018-12-10T00:45:06.855Z,13.73
2018-12-10T00:47:11.103Z,18.43
2018-12-10T00:49:15.311Z,19.13
2018-12-10T00:51:19.621Z,18.97
2018-12-10T00:53:23.888Z,11.30
2018-12-10T00:55:28.119Z,13.60
2018-12-10T00:57:32.434Z,13.93
2018-12-10T00:59:36.598Z,18.90
2018-12-10T01:01:41.292Z,12.43
2018-12-10T01:03:45.635Z,14.07
2018-12-10T01:05:50.022Z,12.10
2018-12-10T01:07:54.312Z,13.13
2018-12-10T01:09:58.658Z,14.97
2018-12-10T01:12:03.071Z,17.43
2018-12-10T01:14:07.255Z,11.53
2018-12-10T01:16:11.472Z,6.70
2018-12-10T01:18:15.941Z,10.07
2018-12-10T01:20:20.223Z,8.17
2018-12-10T01:22:24.665Z,21.33
2018-12-10T01:24:29.072Z,7.07
2018-12-10T01:26:33.267Z,7.70
2018-12-10T01:28:37.704Z,14.10
2018-12-10T01:30:41.796Z,17.47
2018-12-10T01:32:46.195Z,14.13
2018-12-10T01:34:50.662Z,7.27
2018-12-10T01:36:54.865Z,12.67
2018-12-10T01:38:59.261Z,15.20
2018-12-10T01:41:03.545Z,13.73
2018-12-10T01:43:07.801Z,16.80
2018-12-10T01:45:12.086Z,7.23
2018-12-10T01:49:45.515Z,9.63
2018-12-10T01:51:50.052Z,12.47
2018-12-10T01:53:54.940Z,8.57
2018-12-10T01:55:59.513Z,8.03
2018-12-10T01:58:03.890Z,9.73
2018-12-10T02:00:08.552Z,15.07
2018-12-10T02:02:12.731Z,10.93
2018-12-10T02:04:17.010Z,17.67
2018-12-10T02:06:21.244Z,15.43
2018-12-10T02:08:25.628Z,14.97
2018-12-10T02:10:30.402Z,10.73
2018-12-10T02:12:34.607Z,14.37
2018-12-10T02:14:38.854Z,8.80
2018-12-10T02:16:43.261Z,15.00
2018-12-10T02:18:47.578Z,15.10
2018-12-10T02:20:51.883Z,12.40
2018-12-10T02:22:56.079Z,12.43
2018-12-10T02:25:00.446Z,14.10
2018-12-10T02:27:05.130Z,17.50
2018-12-10T02:29:14.318Z,16.33
2018-12-10T02:31:18.489Z,10.23
2018-12-10T02:33:22.777Z,7.20
2018-12-10T02:35:27.307Z,11.83
2018-12-10T02:37:31.603Z,16.20
2018-12-10T02:39:35.725Z,15.47
2018-12-10T02:41:40.241Z,9.70
2018-12-10T02:43:44.717Z,8.73
2018-12-10T02:45:49.025Z,5.20
2018-12-10T02:47:53.193Z,15.40
2018-12-10T02:49:57.496Z,8.40
2018-12-10T02:52:02.027Z,13.30
2018-12-10T02:54:06.622Z,11.60
2018-12-10T02:56:10.810Z,13.40
2018-12-10T02:58:14.985Z,9.30
2018-12-10T03:00:19.272Z,9.20
2018-12-10T03:02:24.623Z,5.73
2018-12-10T03:04:28.924Z,13.63
2018-12-10T03:06:33.119Z,20.50
2018-12-10T03:08:37.377Z,11.93
2018-12-10T03:10:41.563Z,11.23
2018-12-10T03:12:46.000Z,11.77
2018-12-10T03:14:50.379Z,16.20
2018-12-10T03:16:54.814Z,9.10
2018-12-10T03:18:59.134Z,11.57
2018-12-10T03:21:03.449Z,14.17
2018-12-10T03:23:07.950Z,12.97
2018-12-10T03:25:12.201Z,17.37
2018-12-10T03:27:16.370Z,17.20
2018-12-10T03:29:20.719Z,10.80
2018-12-10T03:31:25.002Z,11.03
2018-12-10T03:33:29.237Z,9.03
2018-12-10T03:35:33.742Z,11.27
2018-12-10T03:37:38.053Z,12.17
2018-12-10T03:39:42.166Z,10.73
2018-12-10T03:41:47.678Z,11.53
2018-12-10T03:43:51.935Z,10.30
2018-12-10T03:45:56.265Z,9.60
2018-12-10T03:48:00.568Z,22.93
2018-12-10T03:50:05.777Z,11.43
2018-12-10T03:52:10.115Z,10.70
2018-12-10T03:54:14.333Z,8.83
2018-12-10T03:56:18.520Z,11.03
2018-12-10T03:58:22.751Z,11.40
2018-12-10T04:00:27.158Z,7.73
2018-12-10T04:02:31.650Z,7.10
2018-12-10T04:04:36.155Z,6.80
2018-12-10T04:06:40.530Z,11.97
2018-12-10T04:08:44.855Z,7.70
2018-12-10T04:10:49.425Z,11.07
2018-12-10T04:12:53.812Z,6.73
2018-12-10T04:14:58.016Z,6.50
2018-12-10T04:17:02.359Z,4.93
2018-12-10T04:19:06.850Z,8.80
2018-12-10T04:21:11.313Z,4.43
2018-12-10T04:23:15.433Z,6.70
2018-12-10T04:25:19.862Z,10.33
2018-12-10T04:27:24.415Z,8.60
2018-12-10T04:29:28.987Z,6.80
2018-12-10T04:31:33.288Z,4.17
2018-12-10T04:33:37.635Z,8.63
2018-12-10T04:35:41.832Z,7.63
2018-12-10T04:37:45.989Z,9.87
2018-12-10T04:39:50.394Z,10.23
2018-12-10T04:41:54.975Z,7.07
2018-12-10T04:43:59.631Z,4.90
2018-12-10T04:46:04.256Z,9.20
2018-12-10T04:48:08.509Z,6.27
2018-12-10T04:50:12.887Z,7.20
2018-12-10T04:52:29.835Z,9.30
2018-12-10T04:54:38.333Z,9.63
2018-12-10T04:56:42.460Z,5.90
2018-12-10T04:58:46.783Z,5.67
2018-12-10T05:00:51.109Z,5.60
2018-12-10T05:02:55.645Z,5.57
2018-12-10T05:04:59.871Z,7.60
2018-12-10T05:07:03.980Z,5.50
2018-12-10T05:09:09.022Z,2.40
2018-12-10T05:11:13.207Z,5.40
2018-12-10T05:13:17.690Z,7.30
2018-12-10T05:15:22.455Z,6.50
2018-12-10T05:17:26.652Z,8.67
2018-12-10T05:19:32.316Z,5.33
2018-12-10T05:21:36.692Z,3.30
2018-12-10T05:23:41.016Z,13.23
2018-12-10T05:25:45.355Z,5.63
2018-12-10T05:27:49.784Z,6.10
2018-12-10T05:29:54.160Z,3.63
2018-12-10T05:31:58.505Z,12.97
2018-12-10T05:34:03.048Z,8.37
2018-12-10T05:36:07.986Z,5.97
2018-12-10T05:38:12.160Z,3.80
2018-12-10T05:40:16.408Z,5.80
2018-12-10T05:42:20.488Z,5.90
2018-12-10T05:44:24.596Z,5.00
2018-12-10T05:46:28.722Z,6.73
2018-12-10T05:48:33.263Z,6.13
2018-12-10T05:50:37.409Z,7.90
2018-12-10T05:52:41.759Z,14.00
2018-12-10T05:54:46.224Z,7.17
2018-12-10T05:56:50.679Z,7.87
2018-12-10T05:58:55.194Z,13.63
2018-12-10T06:00:59.312Z,6.60
2018-12-10T06:03:03.639Z,11.93
2018-12-10T06:05:08.162Z,12.93
2018-12-10T06:07:12.382Z,11.03
2018-12-10T06:09:16.595Z,4.13
2018-12-10T06:11:21.194Z,8.47
2018-12-10T06:13:25.311Z,5.27
2018-12-10T06:15:29.625Z,7.00
2018-12-10T06:17:33.940Z,6.27
2018-12-10T06:19:38.324Z,10.57
2018-12-10T06:21:43.245Z,7.97
2018-12-10T06:23:47.558Z,7.20
2018-12-10T06:25:51.797Z,6.47
2018-12-10T06:27:56.027Z,5.87
2018-12-10T06:30:00.302Z,5.47
2018-12-10T06:32:04.585Z,11.30
2018-12-10T06:34:09.234Z,5.60
2018-12-10T06:36:14.244Z,6.80
2018-12-10T06:38:18.544Z,12.10
2018-12-10T06:40:22.844Z,9.53
2018-12-10T06:42:27.017Z,12.57
2018-12-10T06:44:32.521Z,5.40
2018-12-10T06:46:36.703Z,5.40
2018-12-10T06:48:41.123Z,6.47
2018-12-10T06:50:45.412Z,6.97
2018-12-10T06:52:49.889Z,7.37
2018-12-10T06:54:54.273Z,10.10
2018-12-10T06:56:58.518Z,5.60
2018-12-10T06:59:02.776Z,5.73
2018-12-10T07:01:07.143Z,21.33
2018-12-10T07:03:11.856Z,6.47
2018-12-10T07:05:16.341Z,4.20
2018-12-10T07:07:20.551Z,7.30
2018-12-10T07:09:25.087Z,7.20
2018-12-10T07:11:29.437Z,6.00
2018-12-10T07:13:33.662Z,6.00
2018-12-10T07:15:37.902Z,13.87
2018-12-10T07:17:42.703Z,9.67
2018-12-10T07:19:47.180Z,10.07
2018-12-10T07:21:51.374Z,8.03
2018-12-10T07:23:55.627Z,6.23
2018-12-10T07:25:59.912Z,6.73
2018-12-10T07:28:04.223Z,7.43
2018-12-10T07:30:09.578Z,6.07
2018-12-10T07:32:14.167Z,7.27
2018-12-10T07:34:18.393Z,4.43
2018-12-10T07:36:22.625Z,7.20
2018-12-10T07:38:26.893Z,5.43
2018-12-10T07:40:31.345Z,11.27
2018-12-10T07:42:35.442Z,13.87
2018-12-10T07:44:40.054Z,13.00
2018-12-10T07:46:44.681Z,5.90
2018-12-10T07:48:49.007Z,6.33
2018-12-10T07:50:53.421Z,9.70
2018-12-10T07:52:57.645Z,5.70
2018-12-10T07:55:01.831Z,5.90
2018-12-10T07:57:06.066Z,11.20
2018-12-10T07:59:10.394Z,9.97
2018-12-10T08:01:15.403Z,8.23
2018-12-10T08:03:19.705Z,7.70
2018-12-10T08:05:24.138Z,11.33
2018-12-10T08:07:28.391Z,7.13
2018-12-10T08:09:32.642Z,7.43
2018-12-10T08:11:36.903Z,4.50
2018-12-10T08:13:41.281Z,4.90
2018-12-10T08:15:45.525Z,7.93
2018-12-10T08:17:49.737Z,9.17
2018-12-10T08:19:53.911Z,6.13
2018-12-10T08:21:58.861Z,11.83
2018-12-10T08:24:04.357Z,4.43
2018-12-10T08:26:08.598Z,9.70
2018-12-10T08:28:13.190Z,10.27
2018-12-10T08:30:17.614Z,8.23
2018-12-10T08:32:21.875Z,5.23
2018-12-10T08:34:26.139Z,5.33
2018-12-10T08:36:30.494Z,13.87
2018-12-10T08:38:35.219Z,3.87
2018-12-10T08:40:39.492Z,7.00
2018-12-10T08:42:43.792Z,7.73
2018-12-10T08:44:48.244Z,4.90
2018-12-10T08:46:52.584Z,6.43
2018-12-10T08:48:56.908Z,7.90
2018-12-10T08:51:01.366Z,5.47
2018-12-10T08:53:05.788Z,52.97
2018-12-10T08:55:10.086Z,39.63
2018-12-10T08:57:14.540Z,38.77
2018-12-10T08:59:18.963Z,16.40
2018-12-10T09:01:23.377Z,18.53
2018-12-10T09:03:27.721Z,85.73
2018-12-10T09:05:32.135Z,147.80
2018-12-10T09:07:36.554Z,62.57
2018-12-10T09:09:40.660Z,68.37
2018-12-10T09:11:44.970Z,26.03
2018-12-10T09:13:49.464Z,23.63
2018-12-10T09:15:54.042Z,16.07
2018-12-10T09:17:58.410Z,18.83
2018-12-10T09:20:02.645Z,12.43
2018-12-10T09:22:07.007Z,10.07
2018-12-10T09:24:11.676Z,15.90
2018-12-10T09:26:15.984Z,12.87
2018-12-10T09:28:20.413Z,8.80
2018-12-10T09:30:24.793Z,12.30
2018-12-10T09:32:29.037Z,11.70
2018-12-10T09:34:33.319Z,10.40
2018-12-10T09:36:37.700Z,9.47
2018-12-10T09:38:41.805Z,11.80
2018-12-10T09:40:46.262Z,16.70
2018-12-10T09:42:50.530Z,35.27
2018-12-10T09:44:55.508Z,20.00
2018-12-10T09:46:59.829Z,16.87
2018-12-10T09:49:04.238Z,14.70
2018-12-10T09:51:08.677Z,15.47
2018-12-10T09:53:13.105Z,9.00
2018-12-10T09:55:17.422Z,6.53
2018-12-10T09:57:21.747Z,10.10
2018-12-10T09:59:25.955Z,8.10
2018-12-10T10:01:30.358Z,9.90
2018-12-10T10:03:34.554Z,5.90
2018-12-10T10:05:39.014Z,9.80
2018-12-10T10:07:43.517Z,12.87
2018-12-10T10:09:47.936Z,15.43
2018-12-10T10:11:52.343Z,13.87
2018-12-10T10:13:56.572Z,11.87
2018-12-10T10:16:00.788Z,6.60
2018-12-10T10:18:05.181Z,7.00
2018-12-10T10:20:09.633Z,5.40
2018-12-10T10:22:14.018Z,8.47
2018-12-10T10:24:18.371Z,7.07
2018-12-10T10:26:22.669Z,7.40
2018-12-10T10:28:27.031Z,4.97
2018-12-10T10:30:31.278Z,8.30
2018-12-10T10:32:35.633Z,9.10
2018-12-10T10:34:39.812Z,7.67
2018-12-10T10:36:44.651Z,9.67
2018-12-10T10:38:49.119Z,8.90
2018-12-10T10:40:53.465Z,7.40
2018-12-10T10:42:57.889Z,5.23
2018-12-10T10:45:02.324Z,5.80
2018-12-10T10:47:06.718Z,9.10
2018-12-10T10:49:11.351Z,6.33
2018-12-10T10:51:15.643Z,8.80
2018-12-10T10:53:20.179Z,25.00
2018-12-10T10:55:24.554Z,16.50
2018-12-10T10:57:28.986Z,9.10
2018-12-10T10:59:33.523Z,27.17
2018-12-10T11:01:59.920Z,29.83
2018-12-10T11:04:04.190Z,11.97
2018-12-10T11:06:08.857Z,5.20
2018-12-10T11:08:13.293Z,14.03
2018-12-10T11:10:17.609Z,9.87
2018-12-10T11:12:23.217Z,8.87
2018-12-10T11:14:27.796Z,12.90
2018-12-10T11:16:31.995Z,11.60
2018-12-10T11:18:36.512Z,5.70
2018-12-10T11:20:40.923Z,8.07
2018-12-10T11:22:45.324Z,7.40
2018-12-10T11:24:49.876Z,7.53
2018-12-10T11:26:54.110Z,5.57
2018-12-10T11:28:58.392Z,7.33
2018-12-10T11:31:03.041Z,5.93
2018-12-10T11:33:07.626Z,7.67
2018-12-10T11:35:12.076Z,9.77
2018-12-10T11:37:16.307Z,8.03
2018-12-10T11:39:20.671Z,10.13
2018-12-10T11:41:25.015Z,7.17
2018-12-10T11:43:29.301Z,6.20
2018-12-10T11:45:33.756Z,5.77
2018-12-10T11:47:38.366Z,8.10
2018-12-10T11:49:42.920Z,6.10
2018-12-10T11:51:47.298Z,37.10
2018-12-10T11:53:51.673Z,28.23
2018-12-10T11:55:56.160Z,27.93
2018-12-10T11:58:00.445Z,19.63
2018-12-10T12:00:07.352Z,5.90
2018-12-10T12:02:12.367Z,7.07
2018-12-10T12:04:16.742Z,8.20
2018-12-10T12:06:21.155Z,4.93
2018-12-10T12:08:25.455Z,5.07
2018-12-10T12:10:29.926Z,4.67
2018-12-10T12:12:34.175Z,5.03
2018-12-10T12:14:42.908Z,7.13
2018-12-10T12:19:21.647Z,7.40
2018-12-10T12:21:26.017Z,6.40
2018-12-10T12:23:30.432Z,9.50
2018-12-10T12:25:34.786Z,9.17
2018-12-10T12:27:39.370Z,4.77
2018-12-10T12:29:43.769Z,8.83
2018-12-10T12:31:48.197Z,7.97
2018-12-10T12:33:52.399Z,13.10
2018-12-10T12:35:56.826Z,8.10
2018-12-10T12:38:01.216Z,7.13
2018-12-10T12:40:05.966Z,5.10
2018-12-10T12:42:11.367Z,6.73
2018-12-10T12:44:15.700Z,9.23
2018-12-10T12:46:20.247Z,6.90
2018-12-10T12:48:24.989Z,10.87
2018-12-10T12:50:29.591Z,8.60
2018-12-10T12:52:33.954Z,8.63
2018-12-10T12:54:38.198Z,11.73
2018-12-10T12:56:42.419Z,12.50
2018-12-10T12:58:46.691Z,8.10
2018-12-10T13:00:51.565Z,7.20
2018-12-10T13:02:55.770Z,10.83
2018-12-10T13:05:00.820Z,9.37
2018-12-10T13:07:15.357Z,4.63
2018-12-10T13:09:21.869Z,8.20
2018-12-10T13:11:25.863Z,7.77
2018-12-10T13:13:30.345Z,7.03
2018-12-10T13:15:34.776Z,15.10
2018-12-10T13:17:38.874Z,10.17
2018-12-10T13:19:43.418Z,5.43
2018-12-10T13:21:48.157Z,8.00
2018-12-10T13:23:52.435Z,19.20
2018-12-10T13:25:56.609Z,11.57
2018-12-10T13:28:01.097Z,11.70
2018-12-10T13:30:05.816Z,20.13
2018-12-10T13:32:10.541Z,11.97
2018-12-10T13:34:14.828Z,5.73
2018-12-10T13:36:18.924Z,11.60
2018-12-10T13:38:23.171Z,18.90
2018-12-10T13:40:27.470Z,7.17
2018-12-10T13:42:31.791Z,6.07
2018-12-10T13:44:35.990Z,10.30
2018-12-10T13:46:40.231Z,8.23
2018-12-10T13:48:44.503Z,8.60
2018-12-10T13:50:48.832Z,4.47
2018-12-10T13:52:53.248Z,18.37
2018-12-10T13:54:57.431Z,10.90
2018-12-10T13:57:01.684Z,9.00
2018-12-10T13:59:05.968Z,6.33
2018-12-10T14:01:15.430Z,8.83
2018-12-10T14:03:19.647Z,10.90
2018-12-10T14:05:24.065Z,4.83
2018-12-10T14:07:28.500Z,9.73
2018-12-10T14:09:32.993Z,4.70
2018-12-10T14:11:37.215Z,6.77
2018-12-10T14:13:41.607Z,6.73
2018-12-10T14:15:45.967Z,8.13
2018-12-10T14:17:50.261Z,6.70
2018-12-10T14:19:55.869Z,14.10
2018-12-10T14:22:00.226Z,7.40
2018-12-10T14:24:04.595Z,7.07
2018-12-10T14:26:09.000Z,11.50
2018-12-10T14:28:13.512Z,9.53
2018-12-10T14:30:17.871Z,9.37
2018-12-10T14:32:22.264Z,6.27
2018-12-10T14:34:27.425Z,10.60
2018-12-10T14:36:31.781Z,8.30
2018-12-10T14:38:38.090Z,11.57
2018-12-10T14:40:43.844Z,9.63
2018-12-10T14:42:56.882Z,14.37
2018-12-10T14:45:01.211Z,9.03
2018-12-10T14:47:05.778Z,7.90
2018-12-10T14:49:09.919Z,7.33
2018-12-10T14:51:14.042Z,30.73
2018-12-10T14:53:18.446Z,19.77
2018-12-10T14:55:23.043Z,15.70
2018-12-10T14:57:27.290Z,24.93
2018-12-10T14:59:31.552Z,11.37
2018-12-10T15:01:36.061Z,12.93
2018-12-10T15:03:40.547Z,13.30
2018-12-10T15:05:44.828Z,10.73
2018-12-10T15:07:49.622Z,15.03
2018-12-10T15:09:53.977Z,11.80
2018-12-10T15:11:58.253Z,7.60
2018-12-10T15:14:02.645Z,15.13
2018-12-10T15:16:06.877Z,8.30
2018-12-10T15:18:11.765Z,5.30
2018-12-10T15:20:16.390Z,13.10
2018-12-10T15:22:20.667Z,12.43
2018-12-10T15:24:25.124Z,9.53
2018-12-10T15:26:30.685Z,11.47
2018-12-10T15:28:37.694Z,18.13
2018-12-10T15:30:42.025Z,7.93
2018-12-10T15:32:47.721Z,15.50
2018-12-10T15:34:51.833Z,8.23
2018-12-10T15:36:56.293Z,34.53
2018-12-10T15:39:00.899Z,16.83
2018-12-10T15:41:05.779Z,12.43
2018-12-10T15:43:10.454Z,7.83
2018-12-10T15:45:14.508Z,16.57
2018-12-10T15:47:18.881Z,11.43
2018-12-10T15:49:23.460Z,29.30
2018-12-10T15:51:27.532Z,16.03
2018-12-10T15:53:32.148Z,10.93
2018-12-10T15:55:36.612Z,10.17
2018-12-10T15:57:41.108Z,12.67
2018-12-10T15:59:45.280Z,16.70
2018-12-10T16:01:49.592Z,20.97
2018-12-10T16:03:55.100Z,15.60
2018-12-10T16:05:59.275Z,12.97
2018-12-10T16:08:04.228Z,10.57
2018-12-10T16:10:10.103Z,14.63
2018-12-10T16:12:14.560Z,11.37
2018-12-10T16:14:19.737Z,11.63
2018-12-10T16:16:24.125Z,7.53
2018-12-10T16:18:28.511Z,8.60
2018-12-10T16:20:33.089Z,15.67
2018-12-10T16:22:37.480Z,14.47
2018-12-10T16:24:41.769Z,6.80
2018-12-10T16:26:46.128Z,10.20
2018-12-10T16:28:50.557Z,6.33
2018-12-10T16:30:55.158Z,9.00
2018-12-10T16:32:59.557Z,6.53
2018-12-10T16:35:03.919Z,9.00
2018-12-10T16:37:08.300Z,13.13
2018-12-10T16:39:12.738Z,12.10
2018-12-10T16:41:17.038Z,10.87
2018-12-10T16:43:21.314Z,8.00
2018-12-10T16:45:25.668Z,6.33
2018-12-10T16:47:30.086Z,15.20
2018-12-10T16:49:34.504Z,22.23
2018-12-10T16:51:39.028Z,15.73
2018-12-10T16:53:43.273Z,12.13
2018-12-10T16:55:47.902Z,15.47
2018-12-10T16:57:52.257Z,75.67
2018-12-10T16:59:56.706Z,53.23
2018-12-10T17:02:00.911Z,51.47
2018-12-10T17:04:05.257Z,47.30
2018-12-10T17:06:09.675Z,17.37
2018-12-10T17:08:13.967Z,21.10
2018-12-10T17:10:18.395Z,19.23
2018-12-10T17:12:22.817Z,15.80
2018-12-10T17:14:26.965Z,26.47
2018-12-10T17:16:32.663Z,14.80
2018-12-10T17:18:36.834Z,19.07
2018-12-10T17:20:41.500Z,18.37
2018-12-10T17:22:45.763Z,18.30
2018-12-10T17:24:50.062Z,17.70
2018-12-10T17:26:54.465Z,10.50
2018-12-10T17:28:59.176Z,12.57
2018-12-10T17:31:03.558Z,11.47
2018-12-10T17:33:07.941Z,13.17
2018-12-10T17:35:12.843Z,13.20
2018-12-10T17:37:17.338Z,9.37
2018-12-10T17:39:21.598Z,11.97
2018-12-10T17:41:26.458Z,6.93
2018-12-10T17:43:30.988Z,10.60
2018-12-10T17:45:35.189Z,16.30
2018-12-10T17:47:39.712Z,11.63
2018-12-10T17:49:44.404Z,9.60
2018-12-10T17:51:48.839Z,14.90
2018-12-10T17:53:53.898Z,14.27
2018-12-10T17:55:58.022Z,11.60
2018-12-10T17:58:03.223Z,8.90
2018-12-10T18:00:10.408Z,8.37
2018-12-10T18:02:15.324Z,12.03
2018-12-10T18:04:19.585Z,14.87
2018-12-10T18:06:23.983Z,22.17
2018-12-10T18:08:28.279Z,11.07
2018-12-10T18:10:32.622Z,11.60
2018-12-10T18:12:37.909Z,15.40
2018-12-10T18:14:42.239Z,16.13
2018-12-10T18:16:46.890Z,15.30
2018-12-10T18:18:52.315Z,9.93
2018-12-10T18:20:56.740Z,13.20
2018-12-10T18:23:01.128Z,8.80
2018-12-10T18:25:05.690Z,9.17
2018-12-10T18:27:10.077Z,12.07
2018-12-10T18:29:14.281Z,11.00
2018-12-10T18:31:19.638Z,12.27
2018-12-10T18:33:30.017Z,20.50
2018-12-10T18:35:35.957Z,12.47
2018-12-10T18:37:40.355Z,8.57
2018-12-10T18:39:44.853Z,13.27
2018-12-10T18:41:49.206Z,7.73
2018-12-10T18:43:53.399Z,11.40
2018-12-10T18:45:57.947Z,17.57
2018-12-10T18:48:02.334Z,19.90
2018-12-10T18:50:07.064Z,7.10
2018-12-10T18:52:11.506Z,15.27
2018-12-10T18:54:15.898Z,10.70
2018-12-10T18:56:20.765Z,9.43
2018-12-10T18:58:24.969Z,14.23
2018-12-10T19:00:29.163Z,21.20
2018-12-10T19:02:33.615Z,28.20
2018-12-10T19:04:37.842Z,16.43
2018-12-10T19:06:42.095Z,27.07
2018-12-10T19:08:48.196Z,18.23
2018-12-10T19:10:52.816Z,17.80
2018-12-10T19:12:57.207Z,18.17
2018-12-10T19:15:01.775Z,12.10
2018-12-10T19:17:07.159Z,11.73
2018-12-10T19:19:11.609Z,18.40
2018-12-10T19:21:16.050Z,21.83
2018-12-10T19:23:23.999Z,19.60
2018-12-10T19:25:28.428Z,15.23
2018-12-10T19:27:32.857Z,12.70
2018-12-10T19:29:37.161Z,11.87
2018-12-10T19:31:41.544Z,8.60
2018-12-10T19:33:45.832Z,11.73
2018-12-10T19:35:50.615Z,27.87
2018-12-10T19:37:54.815Z,12.13
2018-12-10T19:39:59.245Z,14.00
2018-12-10T19:42:03.662Z,12.10
2018-12-10T19:44:08.071Z,11.33
2018-12-10T19:46:12.591Z,15.50
2018-12-10T19:48:17.682Z,13.63
2018-12-10T19:50:22.273Z,13.70
2018-12-10T19:52:28.111Z,10.53
2018-12-10T19:54:32.954Z,16.50
2018-12-10T19:56:37.638Z,12.00
2018-12-10T19:58:42.043Z,21.83
2018-12-10T20:00:46.508Z,32.37
2018-12-10T20:02:51.921Z,37.27
2018-12-10T20:04:56.402Z,24.27
2018-12-10T20:07:07.645Z,14.40
2018-12-10T20:09:12.307Z,24.20
2018-12-10T20:11:16.713Z,26.97
2018-12-10T20:13:21.280Z,9.73
2018-12-10T20:15:25.500Z,22.30
2018-12-10T20:17:30.037Z,17.10
2018-12-10T20:19:34.599Z,20.50
2018-12-10T20:21:39.238Z,10.27
2018-12-10T20:23:43.784Z,21.30
2018-12-10T20:25:48.188Z,15.00
2018-12-10T20:27:52.857Z,15.07
2018-12-10T20:29:57.451Z,11.63
2018-12-10T20:32:02.222Z,19.03
2018-12-10T20:34:06.882Z,24.70
2018-12-10T20:36:11.635Z,19.73
2018-12-10T20:38:16.032Z,12.27
2018-12-10T20:40:20.810Z,11.60
2018-12-10T20:42:25.064Z,12.43
2018-12-10T20:44:29.638Z,11.63
2018-12-10T20:46:34.184Z,15.53
2018-12-10T20:48:38.516Z,14.73
2018-12-10T20:50:42.803Z,20.20
2018-12-10T20:52:47.463Z,11.27
2018-12-10T20:54:52.178Z,8.83
2018-12-10T20:56:56.582Z,16.00
2018-12-10T20:59:01.162Z,13.97
2018-12-10T21:01:05.812Z,14.83
2018-12-10T21:03:10.324Z,12.20
2018-12-10T21:05:14.661Z,9.77
2018-12-10T21:07:19.106Z,13.70
2018-12-10T21:09:23.902Z,8.70
2018-12-10T21:11:28.628Z,11.77
2018-12-10T21:13:33.381Z,15.90
2018-12-10T21:15:38.225Z,12.10
2018-12-10T21:17:42.772Z,16.23
2018-12-10T21:19:47.436Z,13.07
2018-12-10T21:21:51.657Z,11.50
2018-12-10T21:23:56.273Z,10.43
2018-12-10T21:26:01.795Z,9.77
2018-12-10T21:28:06.260Z,10.40
2018-12-10T21:30:10.642Z,17.00
2018-12-10T21:32:15.158Z,21.80
2018-12-10T21:34:19.706Z,12.13
2018-12-10T21:36:24.444Z,11.73
2018-12-10T21:38:28.886Z,10.47
2018-12-10T21:40:33.201Z,13.20
2018-12-10T21:42:39.060Z,11.47
2018-12-10T21:44:43.514Z,11.80
2018-12-10T21:46:47.928Z,17.43
2018-12-10T21:48:52.676Z,11.00
2018-12-10T21:50:56.978Z,17.50
2018-12-10T21:53:01.391Z,14.30
2018-12-10T21:55:06.446Z,16.43
2018-12-10T21:57:10.813Z,15.73
2018-12-10T21:59:15.251Z,12.20
2018-12-10T22:01:19.521Z,12.37
2018-12-10T22:03:23.895Z,14.00
2018-12-10T22:05:28.493Z,11.33
2018-12-10T22:07:32.786Z,10.67
2018-12-10T22:09:37.247Z,17.00
2018-12-10T22:11:41.545Z,14.77
2018-12-10T22:13:45.756Z,8.73
2018-12-10T22:15:50.018Z,14.83
2018-12-10T22:17:54.504Z,18.93
2018-12-10T22:19:58.801Z,16.10
2018-12-10T22:22:03.077Z,10.63
2018-12-10T22:24:07.469Z,19.47
2018-12-10T22:26:12.878Z,17.13
2018-12-10T22:28:17.188Z,8.20
2018-12-10T22:30:21.419Z,11.57
2018-12-10T22:32:25.826Z,10.47
2018-12-10T22:34:30.227Z,11.20
2018-12-10T22:36:34.657Z,7.30
2018-12-10T22:38:39.198Z,17.90
2018-12-10T22:40:43.472Z,13.30
2018-12-10T22:42:47.836Z,13.43
2018-12-10T22:44:52.219Z,17.47
2018-12-10T22:46:56.542Z,10.43
2018-12-10T22:49:00.941Z,16.07
2018-12-10T22:51:05.570Z,9.10
2018-12-10T22:53:09.863Z,8.40
2018-12-10T22:55:14.304Z,16.87
2018-12-10T22:57:18.712Z,13.97
2018-12-10T22:59:22.819Z,6.70
2018-12-10T23:01:27.264Z,11.93
2018-12-10T23:03:31.245Z,11.30
2018-12-10T23:05:35.372Z,9.03
2018-12-10T23:07:39.781Z,17.23
2018-12-10T23:09:44.069Z,12.53
2018-12-10T23:11:48.417Z,10.07
2018-12-10T23:13:52.741Z,14.27
2018-12-10T23:15:57.002Z,12.57
2018-12-10T23:18:01.424Z,9.80
2018-12-10T23:20:06.317Z,11.23
2018-12-10T23:22:10.494Z,12.03
2018-12-10T23:24:14.813Z,17.23
2018-12-10T23:26:19.116Z,15.53
2018-12-10T23:28:23.447Z,11.70
2018-12-10T23:30:27.712Z,9.40
2018-12-10T23:32:32.090Z,14.20
2018-12-10T23:34:36.363Z,14.13
2018-12-10T23:36:40.789Z,9.13
2018-12-10T23:38:45.019Z,16.67
2018-12-10T23:40:49.521Z,14.03
2018-12-10T23:42:58.831Z,10.13
2018-12-10T23:45:03.051Z,13.57
2018-12-10T23:47:07.278Z,10.30
2018-12-10T23:49:12.646Z,12.50
2018-12-10T23:51:16.703Z,14.20
2018-12-10T23:53:20.947Z,18.50
2018-12-10T23:55:25.291Z,9.43
2018-12-10T23:57:29.692Z,14.67
2018-12-10T23:59:34.006Z,10.40
